GIA225 WAHQ-WIII
Flight info
| Callsign | GIA225 |
|---|---|
| Flight time | 0h 48m |
| Altitude | 34000 |
| Route | PURWO W17N KIDET W16 IMU |
| Aircraft | B738/M-SDE2E3FGHIRWXY/LB1 |
Departure
| Time | 2026-05-08 01:29 |
|---|---|
| Airport | Adisoemarmo International Airport (WAHQ) |
Arrival
| Time | 2026-05-08 02:17 |
|---|---|
| Airport | Soekarno-Hatta International Airport (WIII) |
| Time | Latitude | Longitude | Altitude | Speed | Heading |
|---|---|---|---|---|---|
| 2026-05-08 01:01 | -7.51420 | 110.75011 | 430 ft | 0 kts | 347° |
| 2026-05-08 01:17 | -7.51444 | 110.75016 | 424 ft | 4 kts | 355° |
| 2026-05-08 01:18 | -7.51471 | 110.75015 | 418 ft | 4 kts | 13° |
| 2026-05-08 01:18 | -7.51493 | 110.75005 | 421 ft | 4 kts | 56° |
| 2026-05-08 01:18 | -7.51499 | 110.74993 | 420 ft | 1 kts | 77° |
| 2026-05-08 01:18 | -7.51499 | 110.74992 | 430 ft | 0 kts | 77° |
| 2026-05-08 01:23 | -7.51498 | 110.74997 | 418 ft | 2 kts | 77° |
| 2026-05-08 01:23 | -7.51493 | 110.75017 | 430 ft | 4 kts | 77° |
| 2026-05-08 01:24 | -7.51485 | 110.75055 | 423 ft | 7 kts | 77° |
| 2026-05-08 01:24 | -7.51483 | 110.75107 | 420 ft | 8 kts | 110° |
| 2026-05-08 01:24 | -7.51532 | 110.75137 | 430 ft | 9 kts | 167° |
| 2026-05-08 01:24 | -7.51599 | 110.75152 | 430 ft | 11 kts | 167° |
| 2026-05-08 01:25 | -7.51673 | 110.75169 | 427 ft | 11 kts | 167° |
| 2026-05-08 01:25 | -7.51736 | 110.75137 | 422 ft | 12 kts | 251° |
| 2026-05-08 01:25 | -7.51755 | 110.75048 | 425 ft | 14 kts | 258° |
| 2026-05-08 01:25 | -7.51778 | 110.74944 | 421 ft | 16 kts | 257° |
| 2026-05-08 01:26 | -7.51804 | 110.74832 | 422 ft | 17 kts | 257° |
| 2026-05-08 01:26 | -7.51831 | 110.74713 | 428 ft | 17 kts | 257° |
| 2026-05-08 01:26 | -7.51876 | 110.74625 | 424 ft | 15 kts | 214° |
| 2026-05-08 01:26 | -7.51861 | 110.74570 | 424 ft | 11 kts | 16° |
| 2026-05-08 01:27 | -7.51849 | 110.74617 | 427 ft | 6 kts | 88° |
| 2026-05-08 01:27 | -7.51842 | 110.74653 | 427 ft | 0 kts | 77° |
| 2026-05-08 01:27 | -7.51842 | 110.74654 | 427 ft | 0 kts | 77° |
| 2026-05-08 01:27 | -7.51841 | 110.74656 | 427 ft | 0 kts | 77° |
| 2026-05-08 01:28 | -7.51841 | 110.74657 | 427 ft | 0 kts | 78° |
| 2026-05-08 01:28 | -7.51835 | 110.74684 | 427 ft | 18 kts | 78° |
| 2026-05-08 01:28 | -7.51740 | 110.75116 | 424 ft | 107 kts | 77° |
| 2026-05-08 01:29 | -7.51440 | 110.76508 | 560 ft | 191 kts | 78° |
| 2026-05-08 01:29 | -7.51251 | 110.77413 | 1187 ft | 196 kts | 78° |
| 2026-05-08 01:29 | -7.50990 | 110.78684 | 2489 ft | 179 kts | 77° |
| 2026-05-08 01:29 | -7.50316 | 110.79830 | 3110 ft | 206 kts | 40° |
| 2026-05-08 01:30 | -7.49005 | 110.80523 | 3680 ft | 220 kts | 18° |
| 2026-05-08 01:30 | -7.47465 | 110.80681 | 4315 ft | 227 kts | 357° |
| 2026-05-08 01:30 | -7.45908 | 110.80191 | 4838 ft | 243 kts | 333° |
| 2026-05-08 01:30 | -7.44404 | 110.79351 | 5428 ft | 251 kts | 332° |
| 2026-05-08 01:31 | -7.42850 | 110.78476 | 5980 ft | 261 kts | 332° |
| 2026-05-08 01:31 | -7.41218 | 110.77555 | 6573 ft | 277 kts | 332° |
| 2026-05-08 01:31 | -7.39524 | 110.76596 | 7181 ft | 289 kts | 332° |
| 2026-05-08 01:31 | -7.37741 | 110.75592 | 7755 ft | 295 kts | 333° |
| 2026-05-08 01:32 | -7.35791 | 110.74968 | 8333 ft | 296 kts | 357° |
| 2026-05-08 01:32 | -7.33734 | 110.74957 | 8957 ft | 296 kts | 2° |
| 2026-05-08 01:32 | -7.31670 | 110.75009 | 9517 ft | 298 kts | 2° |
| 2026-05-08 01:32 | -7.29579 | 110.75056 | 10095 ft | 301 kts | 2° |
| 2026-05-08 01:33 | -7.27476 | 110.75093 | 10669 ft | 303 kts | 1° |
| 2026-05-08 01:33 | -7.25361 | 110.75124 | 11247 ft | 305 kts | 1° |
| 2026-05-08 01:33 | -7.23233 | 110.75153 | 11812 ft | 306 kts | 0° |
| 2026-05-08 01:33 | -7.21132 | 110.74824 | 12371 ft | 308 kts | 339° |
| 2026-05-08 01:34 | -7.19263 | 110.73775 | 12958 ft | 309 kts | 321° |
| 2026-05-08 01:34 | -7.17838 | 110.72180 | 13555 ft | 314 kts | 303° |
| 2026-05-08 01:34 | -7.16658 | 110.70298 | 14128 ft | 323 kts | 301° |
| 2026-05-08 01:34 | -7.15501 | 110.68329 | 14721 ft | 330 kts | 300° |
| 2026-05-08 01:35 | -7.14332 | 110.66314 | 15311 ft | 337 kts | 300° |
| 2026-05-08 01:35 | -7.13136 | 110.64263 | 15880 ft | 343 kts | 300° |
| 2026-05-08 01:35 | -7.11911 | 110.62179 | 16470 ft | 349 kts | 301° |
| 2026-05-08 01:35 | -7.10663 | 110.60070 | 17049 ft | 353 kts | 301° |
| 2026-05-08 01:36 | -7.09393 | 110.57931 | 17626 ft | 358 kts | 301° |
| 2026-05-08 01:36 | -7.08099 | 110.55759 | 18124 ft | 365 kts | 301° |
| 2026-05-08 01:36 | -7.06779 | 110.53544 | 18547 ft | 373 kts | 301° |
| 2026-05-08 01:36 | -7.05430 | 110.51283 | 18986 ft | 380 kts | 301° |
| 2026-05-08 01:37 | -7.04057 | 110.48983 | 19420 ft | 386 kts | 301° |
| 2026-05-08 01:37 | -7.02664 | 110.46651 | 19852 ft | 391 kts | 301° |
| 2026-05-08 01:37 | -7.01256 | 110.44291 | 20281 ft | 396 kts | 301° |
| 2026-05-08 01:37 | -6.99830 | 110.41904 | 20707 ft | 400 kts | 301° |
| 2026-05-08 01:38 | -6.98387 | 110.39488 | 21136 ft | 404 kts | 301° |
| 2026-05-08 01:38 | -6.96944 | 110.37085 | 21560 ft | 407 kts | 302° |
| 2026-05-08 01:38 | -6.95429 | 110.34664 | 21989 ft | 410 kts | 302° |
| 2026-05-08 01:38 | -6.93878 | 110.32244 | 22413 ft | 412 kts | 303° |
| 2026-05-08 01:39 | -6.92309 | 110.29812 | 22839 ft | 414 kts | 303° |
| 2026-05-08 01:39 | -6.90735 | 110.27374 | 23261 ft | 416 kts | 303° |
| 2026-05-08 01:39 | -6.89158 | 110.24923 | 23685 ft | 417 kts | 303° |
| 2026-05-08 01:39 | -6.87582 | 110.22465 | 24111 ft | 418 kts | 303° |
| 2026-05-08 01:40 | -6.86006 | 110.20006 | 24535 ft | 419 kts | 303° |
| 2026-05-08 01:40 | -6.84428 | 110.17538 | 24958 ft | 420 kts | 303° |
| 2026-05-08 01:40 | -6.82846 | 110.15062 | 25380 ft | 420 kts | 303° |
| 2026-05-08 01:40 | -6.81265 | 110.12587 | 25817 ft | 421 kts | 302° |
| 2026-05-08 01:41 | -6.79681 | 110.10108 | 26227 ft | 421 kts | 302° |
| 2026-05-08 01:41 | -6.78096 | 110.07626 | 26646 ft | 421 kts | 302° |
| 2026-05-08 01:41 | -6.76510 | 110.05147 | 27067 ft | 421 kts | 302° |
| 2026-05-08 01:41 | -6.74942 | 110.02696 | 27482 ft | 421 kts | 302° |
| 2026-05-08 01:42 | -6.73357 | 110.00217 | 27916 ft | 421 kts | 302° |
| 2026-05-08 01:42 | -6.71768 | 109.97733 | 28326 ft | 421 kts | 302° |
| 2026-05-08 01:42 | -6.70180 | 109.95250 | 28750 ft | 421 kts | 302° |
| 2026-05-08 01:42 | -6.68593 | 109.92768 | 29170 ft | 421 kts | 302° |
| 2026-05-08 01:43 | -6.67006 | 109.90289 | 29590 ft | 420 kts | 302° |
| 2026-05-08 01:43 | -6.65424 | 109.87817 | 30011 ft | 420 kts | 302° |
| 2026-05-08 01:43 | -6.63844 | 109.85347 | 30431 ft | 419 kts | 302° |
| 2026-05-08 01:43 | -6.62284 | 109.82911 | 30848 ft | 418 kts | 302° |
| 2026-05-08 01:44 | -6.60709 | 109.80451 | 31266 ft | 417 kts | 302° |
| 2026-05-08 01:44 | -6.59139 | 109.77999 | 31687 ft | 416 kts | 302° |
| 2026-05-08 01:44 | -6.57570 | 109.75550 | 32109 ft | 415 kts | 302° |
| 2026-05-08 01:44 | -6.56012 | 109.73116 | 32526 ft | 413 kts | 302° |
| 2026-05-08 01:45 | -6.54458 | 109.70690 | 32943 ft | 412 kts | 302° |
| 2026-05-08 01:45 | -6.52911 | 109.68276 | 33362 ft | 410 kts | 302° |
| 2026-05-08 01:45 | -6.51361 | 109.65856 | 33509 ft | 416 kts | 302° |
| 2026-05-08 01:46 | -6.48190 | 109.60906 | 33639 ft | 430 kts | 302° |
| 2026-05-08 01:46 | -6.44903 | 109.55780 | 33835 ft | 441 kts | 302° |
| 2026-05-08 01:47 | -6.41541 | 109.50536 | 33868 ft | 452 kts | 303° |
| 2026-05-08 01:47 | -6.38098 | 109.45167 | 33869 ft | 460 kts | 303° |
| 2026-05-08 01:48 | -6.32895 | 109.37054 | 33860 ft | 461 kts | 302° |
| 2026-05-08 01:48 | -6.31414 | 109.34201 | 33867 ft | 460 kts | 291° |
| 2026-05-08 01:48 | -6.30459 | 109.31135 | 33874 ft | 459 kts | 282° |
| 2026-05-08 01:49 | -6.29977 | 109.24752 | 33881 ft | 458 kts | 270° |
| 2026-05-08 01:49 | -6.30078 | 109.18347 | 33869 ft | 458 kts | 269° |
| 2026-05-08 01:50 | -6.30166 | 109.11942 | 33868 ft | 458 kts | 270° |
| 2026-05-08 01:50 | -6.30204 | 109.05546 | 33872 ft | 457 kts | 270° |
| 2026-05-08 01:51 | -6.30224 | 108.99163 | 33869 ft | 456 kts | 270° |
| 2026-05-08 01:51 | -6.30243 | 108.92780 | 33871 ft | 456 kts | 270° |
| 2026-05-08 01:52 | -6.30264 | 108.86441 | 33868 ft | 457 kts | 270° |
| 2026-05-08 01:52 | -6.30283 | 108.80053 | 33873 ft | 456 kts | 270° |
| 2026-05-08 01:53 | -6.30301 | 108.73670 | 33881 ft | 457 kts | 270° |
| 2026-05-08 01:53 | -6.30319 | 108.67282 | 33879 ft | 457 kts | 270° |
| 2026-05-08 01:54 | -6.30338 | 108.60879 | 33882 ft | 459 kts | 270° |
| 2026-05-08 01:54 | -6.30354 | 108.54434 | 33371 ft | 464 kts | 270° |
| 2026-05-08 01:55 | -6.30361 | 108.51212 | 32945 ft | 458 kts | 270° |
| 2026-05-08 01:55 | -6.30368 | 108.48022 | 32453 ft | 454 kts | 270° |
| 2026-05-08 01:55 | -6.30376 | 108.44848 | 31973 ft | 450 kts | 270° |
| 2026-05-08 01:55 | -6.30383 | 108.41753 | 31504 ft | 447 kts | 270° |
| 2026-05-08 01:56 | -6.30390 | 108.38641 | 31031 ft | 444 kts | 269° |
| 2026-05-08 01:56 | -6.30104 | 108.35565 | 30638 ft | 439 kts | 285° |
| 2026-05-08 01:56 | -6.29003 | 108.32742 | 30251 ft | 435 kts | 300° |
| 2026-05-08 01:56 | -6.27159 | 108.30339 | 29810 ft | 432 kts | 312° |
| 2026-05-08 01:57 | -6.25070 | 108.28177 | 29345 ft | 430 kts | 314° |
| 2026-05-08 01:57 | -6.22955 | 108.26063 | 28874 ft | 427 kts | 314° |
| 2026-05-08 01:57 | -6.20861 | 108.23962 | 28404 ft | 424 kts | 314° |
| 2026-05-08 01:57 | -6.18793 | 108.21857 | 27944 ft | 421 kts | 314° |
| 2026-05-08 01:58 | -6.16757 | 108.19757 | 27485 ft | 418 kts | 314° |
| 2026-05-08 01:58 | -6.14738 | 108.17663 | 27028 ft | 416 kts | 314° |
| 2026-05-08 01:58 | -6.12734 | 108.15583 | 26574 ft | 413 kts | 314° |
| 2026-05-08 01:58 | -6.10765 | 108.13546 | 26132 ft | 410 kts | 314° |
| 2026-05-08 01:59 | -6.08778 | 108.11506 | 25684 ft | 407 kts | 314° |
| 2026-05-08 01:59 | -6.06808 | 108.09485 | 25238 ft | 404 kts | 315° |
| 2026-05-08 01:59 | -6.04850 | 108.07476 | 24798 ft | 401 kts | 315° |
| 2026-05-08 01:59 | -6.02901 | 108.05474 | 24355 ft | 398 kts | 315° |
| 2026-05-08 02:00 | -6.00969 | 108.03490 | 23913 ft | 395 kts | 315° |
| 2026-05-08 02:00 | -5.99049 | 108.01518 | 23481 ft | 393 kts | 315° |
| 2026-05-08 02:00 | -5.97297 | 107.99432 | 23018 ft | 391 kts | 300° |
| 2026-05-08 02:00 | -5.96279 | 107.96916 | 22577 ft | 389 kts | 282° |
| 2026-05-08 02:01 | -5.96043 | 107.94215 | 22113 ft | 388 kts | 271° |
| 2026-05-08 02:01 | -5.96046 | 107.91507 | 21628 ft | 387 kts | 269° |
| 2026-05-08 02:01 | -5.96087 | 107.88842 | 21139 ft | 386 kts | 269° |
| 2026-05-08 02:01 | -5.96126 | 107.86147 | 20654 ft | 385 kts | 269° |
| 2026-05-08 02:02 | -5.96152 | 107.83466 | 20170 ft | 383 kts | 269° |
| 2026-05-08 02:02 | -5.96165 | 107.80795 | 19700 ft | 381 kts | 269° |
| 2026-05-08 02:02 | -5.96169 | 107.78131 | 19201 ft | 380 kts | 269° |
| 2026-05-08 02:02 | -5.96170 | 107.75482 | 18729 ft | 378 kts | 269° |
| 2026-05-08 02:03 | -5.96169 | 107.72847 | 18258 ft | 377 kts | 269° |
| 2026-05-08 02:03 | -5.96168 | 107.70226 | 17804 ft | 374 kts | 269° |
| 2026-05-08 02:03 | -5.96168 | 107.67617 | 17308 ft | 373 kts | 269° |
| 2026-05-08 02:03 | -5.96167 | 107.65020 | 16848 ft | 371 kts | 269° |
| 2026-05-08 02:04 | -5.96167 | 107.62431 | 16383 ft | 369 kts | 269° |
| 2026-05-08 02:04 | -5.96168 | 107.59862 | 15923 ft | 367 kts | 269° |
| 2026-05-08 02:04 | -5.96168 | 107.57303 | 15465 ft | 365 kts | 270° |
| 2026-05-08 02:04 | -5.96169 | 107.54758 | 15006 ft | 363 kts | 270° |
| 2026-05-08 02:05 | -5.96169 | 107.52231 | 14551 ft | 361 kts | 270° |
| 2026-05-08 02:05 | -5.96170 | 107.49718 | 14098 ft | 359 kts | 270° |
| 2026-05-08 02:05 | -5.96170 | 107.47221 | 13648 ft | 356 kts | 270° |
| 2026-05-08 02:05 | -5.96170 | 107.44736 | 13200 ft | 354 kts | 270° |
| 2026-05-08 02:06 | -5.96170 | 107.42276 | 12760 ft | 351 kts | 270° |
| 2026-05-08 02:06 | -5.96169 | 107.39826 | 12331 ft | 349 kts | 270° |
| 2026-05-08 02:06 | -5.96169 | 107.37398 | 11871 ft | 347 kts | 270° |
| 2026-05-08 02:06 | -5.96168 | 107.34982 | 11442 ft | 345 kts | 270° |
| 2026-05-08 02:07 | -5.96167 | 107.32579 | 11011 ft | 342 kts | 270° |
| 2026-05-08 02:07 | -5.96165 | 107.30222 | 10584 ft | 341 kts | 270° |
| 2026-05-08 02:07 | -5.96163 | 107.27845 | 10139 ft | 340 kts | 270° |
| 2026-05-08 02:07 | -5.96159 | 107.25480 | 9783 ft | 336 kts | 270° |
| 2026-05-08 02:08 | -5.96156 | 107.23183 | 9716 ft | 322 kts | 269° |
| 2026-05-08 02:08 | -5.96153 | 107.20968 | 9627 ft | 311 kts | 269° |
| 2026-05-08 02:08 | -5.96149 | 107.18822 | 9347 ft | 307 kts | 269° |
| 2026-05-08 02:08 | -5.96145 | 107.16673 | 8974 ft | 307 kts | 269° |
| 2026-05-08 02:09 | -5.96140 | 107.14529 | 8602 ft | 307 kts | 269° |
| 2026-05-08 02:09 | -5.96133 | 107.12382 | 8231 ft | 307 kts | 269° |
| 2026-05-08 02:09 | -5.96124 | 107.10302 | 7869 ft | 305 kts | 269° |
| 2026-05-08 02:09 | -5.96114 | 107.08109 | 7486 ft | 305 kts | 269° |
| 2026-05-08 02:10 | -5.96102 | 107.06003 | 7118 ft | 303 kts | 269° |
| 2026-05-08 02:10 | -5.96087 | 107.03911 | 6679 ft | 297 kts | 269° |
| 2026-05-08 02:10 | -5.96214 | 107.01847 | 6065 ft | 296 kts | 252° |
| 2026-05-08 02:10 | -5.97203 | 107.00075 | 5520 ft | 290 kts | 229° |
| 2026-05-08 02:11 | -5.98424 | 106.98459 | 5072 ft | 292 kts | 234° |
| 2026-05-08 02:11 | -5.99395 | 106.96654 | 4638 ft | 296 kts | 248° |
| 2026-05-08 02:11 | -5.99879 | 106.94656 | 4353 ft | 294 kts | 263° |
| 2026-05-08 02:11 | -6.00086 | 106.92635 | 4078 ft | 287 kts | 252° |
| 2026-05-08 02:12 | -6.00869 | 106.90826 | 3863 ft | 279 kts | 242° |
| 2026-05-08 02:12 | -6.01648 | 106.89072 | 3725 ft | 271 kts | 246° |
| 2026-05-08 02:12 | -6.02107 | 106.87918 | 3637 ft | 266 kts | 247° |
| 2026-05-08 02:12 | -6.02702 | 106.86390 | 3524 ft | 257 kts | 247° |
| 2026-05-08 02:13 | -6.03342 | 106.84756 | 3490 ft | 246 kts | 247° |
| 2026-05-08 02:13 | -6.03965 | 106.83179 | 3351 ft | 241 kts | 247° |
| 2026-05-08 02:13 | -6.04587 | 106.81611 | 3051 ft | 242 kts | 246° |
| 2026-05-08 02:13 | -6.05206 | 106.80050 | 2745 ft | 244 kts | 247° |
| 2026-05-08 02:14 | -6.05844 | 106.78442 | 2408 ft | 244 kts | 248° |
| 2026-05-08 02:14 | -6.06456 | 106.76893 | 2112 ft | 238 kts | 248° |
| 2026-05-08 02:14 | -6.07054 | 106.75383 | 1789 ft | 227 kts | 249° |
| 2026-05-08 02:14 | -6.07623 | 106.73946 | 1488 ft | 216 kts | 249° |
| 2026-05-08 02:15 | -6.08159 | 106.72594 | 1205 ft | 200 kts | 249° |
| 2026-05-08 02:15 | -6.08654 | 106.71345 | 963 ft | 186 kts | 249° |
| 2026-05-08 02:15 | -6.09107 | 106.70198 | 730 ft | 167 kts | 249° |
| 2026-05-08 02:15 | -6.09385 | 106.69501 | 581 ft | 154 kts | 249° |
| 2026-05-08 02:16 | -6.09759 | 106.68557 | 374 ft | 140 kts | 249° |
| 2026-05-08 02:16 | -6.10235 | 106.67350 | 149 ft | 140 kts | 249° |
| 2026-05-08 02:16 | -6.10592 | 106.66453 | 43 ft | 134 kts | 249° |
| 2026-05-08 02:16 | -6.10802 | 106.65927 | 42 ft | 108 kts | 245° |
| 2026-05-08 02:17 | -6.11025 | 106.65368 | 39 ft | 64 kts | 248° |
| 2026-05-08 02:17 | -6.11136 | 106.65090 | 39 ft | 28 kts | 248° |
| 2026-05-08 02:17 | -6.11207 | 106.64914 | 40 ft | 26 kts | 244° |
| 2026-05-08 02:17 | -6.11324 | 106.64784 | 40 ft | 24 kts | 217° |
| 2026-05-08 02:18 | -6.11452 | 106.64712 | 39 ft | 17 kts | 182° |
| 2026-05-08 02:18 | -6.11545 | 106.64768 | 37 ft | 16 kts | 106° |
| 2026-05-08 02:18 | -6.11513 | 106.64873 | 38 ft | 16 kts | 67° |
| 2026-05-08 02:18 | -6.11472 | 106.64971 | 38 ft | 15 kts | 68° |
| 2026-05-08 02:19 | -6.11443 | 106.65047 | 39 ft | 9 kts | 69° |
| 2026-05-08 02:19 | -6.11431 | 106.65105 | 39 ft | 9 kts | 108° |
| 2026-05-08 02:19 | -6.11479 | 106.65136 | 40 ft | 8 kts | 158° |
| 2026-05-08 02:19 | -6.11532 | 106.65157 | 41 ft | 8 kts | 158° |
| 2026-05-08 02:20 | -6.11566 | 106.65197 | 40 ft | 8 kts | 94° |
| 2026-05-08 02:20 | -6.11553 | 106.65256 | 40 ft | 9 kts | 71° |
| 2026-05-08 02:20 | -6.11527 | 106.65323 | 39 ft | 11 kts | 67° |
| 2026-05-08 02:20 | -6.11494 | 106.65403 | 36 ft | 13 kts | 68° |
| 2026-05-08 02:21 | -6.11458 | 106.65495 | 38 ft | 13 kts | 68° |
| 2026-05-08 02:21 | -6.11432 | 106.65561 | 38 ft | 11 kts | 69° |
| 2026-05-08 02:21 | -6.11413 | 106.65639 | 39 ft | 12 kts | 83° |
| 2026-05-08 02:21 | -6.11411 | 106.65732 | 38 ft | 14 kts | 95° |
| 2026-05-08 02:22 | -6.11423 | 106.65815 | 37 ft | 9 kts | 99° |
| 2026-05-08 02:22 | -6.11458 | 106.65870 | 37 ft | 10 kts | 152° |
| 2026-05-08 02:22 | -6.11528 | 106.65905 | 37 ft | 12 kts | 153° |
| 2026-05-08 02:22 | -6.11559 | 106.65973 | 37 ft | 12 kts | 73° |
| 2026-05-08 02:23 | -6.11528 | 106.66056 | 37 ft | 13 kts | 69° |
| 2026-05-08 02:23 | -6.11491 | 106.66145 | 37 ft | 15 kts | 68° |
| 2026-05-08 02:23 | -6.11452 | 106.66244 | 36 ft | 16 kts | 68° |
| 2026-05-08 02:23 | -6.11409 | 106.66352 | 36 ft | 17 kts | 68° |
| 2026-05-08 02:24 | -6.11363 | 106.66466 | 36 ft | 18 kts | 68° |
| 2026-05-08 02:24 | -6.11315 | 106.66588 | 37 ft | 19 kts | 68° |
| 2026-05-08 02:24 | -6.11288 | 106.66655 | 37 ft | 1 kts | 68° |
| 2026-05-08 02:24 | -6.11283 | 106.66666 | 37 ft | 3 kts | 68° |
| 2026-05-08 02:25 | -6.11273 | 106.66690 | 37 ft | 5 kts | 68° |
| 2026-05-08 02:25 | -6.11258 | 106.66730 | 37 ft | 7 kts | 69° |
| 2026-05-08 02:25 | -6.11237 | 106.66784 | 37 ft | 9 kts | 68° |
| 2026-05-08 02:25 | -6.11220 | 106.66853 | 37 ft | 11 kts | 102° |
| 2026-05-08 02:26 | -6.11284 | 106.66897 | 35 ft | 13 kts | 158° |
| 2026-05-08 02:26 | -6.11370 | 106.66931 | 37 ft | 10 kts | 158° |
| 2026-05-08 02:26 | -6.11432 | 106.66956 | 36 ft | 10 kts | 158° |
| 2026-05-08 02:26 | -6.11443 | 106.67002 | 37 ft | 6 kts | 61° |
| 2026-05-08 02:27 | -6.11428 | 106.67034 | 37 ft | 3 kts | 68° |
| 2026-05-08 02:27 | -6.11426 | 106.67039 | 37 ft | 0 kts | 68° |